sensor_id;sensor_type;location;lat;lon;timestamp;pressure;altitude;pressure_sealevel;temperature;humidity
73671;BME280;61968;48.178;11.566;2023-06-10T00:01:06;95372.16;;;19.79;31.50
73671;BME280;61968;48.178;11.566;2023-06-10T00:03:32;95372.75;;;19.76;31.86
73671;BME280;61968;48.178;11.566;2023-06-10T00:05:59;95376.22;;;19.76;31.60
73671;BME280;61968;48.178;11.566;2023-06-10T00:08:25;95363.69;;;19.71;31.78
73671;BME280;61968;48.178;11.566;2023-06-10T00:10:52;95369.38;;;19.70;31.84
73671;BME280;61968;48.178;11.566;2023-06-10T00:13:18;95365.97;;;19.64;32.13
73671;BME280;61968;48.178;11.566;2023-06-10T00:15:45;95369.25;;;19.61;32.44
73671;BME280;61968;48.178;11.566;2023-06-10T00:18:13;95367.25;;;19.53;32.59
73671;BME280;61968;48.178;11.566;2023-06-10T00:20:39;95364.28;;;19.55;32.56
73671;BME280;61968;48.178;11.566;2023-06-10T00:23:06;95369.72;;;19.49;32.76
73671;BME280;61968;48.178;11.566;2023-06-10T00:25:34;95367.84;;;19.50;32.69
73671;BME280;61968;48.178;11.566;2023-06-10T00:28:01;95364.09;;;19.51;32.78
73671;BME280;61968;48.178;11.566;2023-06-10T00:30:27;95366.31;;;19.44;33.30
73671;BME280;61968;48.178;11.566;2023-06-10T00:32:54;95366.13;;;19.40;32.87
73671;BME280;61968;48.178;11.566;2023-06-10T00:35:21;95371.88;;;19.34;33.00
73671;BME280;61968;48.178;11.566;2023-06-10T00:37:48;95369.78;;;19.31;33.11
73671;BME280;61968;48.178;11.566;2023-06-10T00:40:14;95371.06;;;19.33;33.38
73671;BME280;61968;48.178;11.566;2023-06-10T00:42:41;95372.06;;;19.23;33.67
73671;BME280;61968;48.178;11.566;2023-06-10T00:45:08;95370.38;;;19.27;33.70
73671;BME280;61968;48.178;11.566;2023-06-10T00:47:35;95372.47;;;19.31;33.60
73671;BME280;61968;48.178;11.566;2023-06-10T00:50:01;95366.47;;;19.20;33.66
73671;BME280;61968;48.178;11.566;2023-06-10T00:52:30;95377.78;;;19.17;33.75
73671;BME280;61968;48.178;11.566;2023-06-10T00:54:56;95367.94;;;19.12;33.70
73671;BME280;61968;48.178;11.566;2023-06-10T00:57:24;95367.38;;;19.15;33.89
73671;BME280;61968;48.178;11.566;2023-06-10T00:59:50;95366.34;;;19.11;33.77
73671;BME280;61968;48.178;11.566;2023-06-10T01:02:17;95364.47;;;19.12;33.92
73671;BME280;61968;48.178;11.566;2023-06-10T01:04:43;95366.06;;;19.13;33.64
73671;BME280;61968;48.178;11.566;2023-06-10T01:07:16;95366.66;;;19.10;33.91
73671;BME280;61968;48.178;11.566;2023-06-10T01:09:52;95364.03;;;19.04;34.26
73671;BME280;61968;48.178;11.566;2023-06-10T01:12:30;95364.16;;;18.99;34.03
73671;BME280;61968;48.178;11.566;2023-06-10T01:14:58;95365.72;;;19.00;34.06
73671;BME280;61968;48.178;11.566;2023-06-10T01:17:25;95359.84;;;18.98;33.98
73671;BME280;61968;48.178;11.566;2023-06-10T01:19:56;95373.25;;;18.98;34.12
73671;BME280;61968;48.178;11.566;2023-06-10T01:22:25;95365.81;;;18.95;34.30
73671;BME280;61968;48.178;11.566;2023-06-10T01:24:53;95366.38;;;18.92;34.19
73671;BME280;61968;48.178;11.566;2023-06-10T01:27:26;95366.25;;;18.84;34.85
73671;BME280;61968;48.178;11.566;2023-06-10T01:30:00;95364.13;;;18.80;34.56
73671;BME280;61968;48.178;11.566;2023-06-10T01:32:34;95365.78;;;18.81;34.90
73671;BME280;61968;48.178;11.566;2023-06-10T01:35:03;95366.59;;;18.77;34.64
73671;BME280;61968;48.178;11.566;2023-06-10T01:37:33;95373.84;;;18.76;34.71
73671;BME280;61968;48.178;11.566;2023-06-10T01:40:00;95373.84;;;18.76;34.76
73671;BME280;61968;48.178;11.566;2023-06-10T01:42:29;95380.56;;;18.74;35.10
73671;BME280;61968;48.178;11.566;2023-06-10T01:44:56;95372.59;;;18.69;35.11
73671;BME280;61968;48.178;11.566;2023-06-10T01:47:22;95380.44;;;18.65;35.31
73671;BME280;61968;48.178;11.566;2023-06-10T01:49:49;95383.47;;;18.58;35.51
73671;BME280;61968;48.178;11.566;2023-06-10T01:52:16;95378.06;;;18.64;35.36
73671;BME280;61968;48.178;11.566;2023-06-10T01:54:44;95380.94;;;18.67;35.13
73671;BME280;61968;48.178;11.566;2023-06-10T01:57:10;95384.47;;;18.63;35.13
73671;BME280;61968;48.178;11.566;2023-06-10T01:59:36;95386.22;;;18.53;35.73
73671;BME280;61968;48.178;11.566;2023-06-10T02:02:03;95385.72;;;18.51;35.39
73671;BME280;61968;48.178;11.566;2023-06-10T02:04:30;95381.16;;;18.52;35.56
73671;BME280;61968;48.178;11.566;2023-06-10T02:06:57;95381.44;;;18.50;35.47
73671;BME280;61968;48.178;11.566;2023-06-10T02:09:23;95382.03;;;18.47;36.08
73671;BME280;61968;48.178;11.566;2023-06-10T02:11:51;95390.06;;;18.47;35.63
73671;BME280;61968;48.178;11.566;2023-06-10T02:14:17;95384.69;;;18.47;35.75
73671;BME280;61968;48.178;11.566;2023-06-10T02:16:44;95386.88;;;18.45;35.89
73671;BME280;61968;48.178;11.566;2023-06-10T02:19:12;95379.44;;;18.42;36.16
73671;BME280;61968;48.178;11.566;2023-06-10T02:21:38;95378.41;;;18.38;36.35
73671;BME280;61968;48.178;11.566;2023-06-10T02:24:06;95380.59;;;18.36;36.38
73671;BME280;61968;48.178;11.566;2023-06-10T02:26:32;95380.59;;;18.36;36.10
73671;BME280;61968;48.178;11.566;2023-06-10T02:29:00;95378.19;;;18.34;36.22
73671;BME280;61968;48.178;11.566;2023-06-10T02:31:26;95375.28;;;18.31;36.45
73671;BME280;61968;48.178;11.566;2023-06-10T02:33:54;95382.22;;;18.32;36.58
73671;BME280;61968;48.178;11.566;2023-06-10T02:36:20;95380.34;;;18.32;36.16
73671;BME280;61968;48.178;11.566;2023-06-10T02:38:49;95381.66;;;18.35;36.51
73671;BME280;61968;48.178;11.566;2023-06-10T02:41:15;95383.69;;;18.24;36.42
73671;BME280;61968;48.178;11.566;2023-06-10T02:43:42;95384.47;;;18.25;36.74
73671;BME280;61968;48.178;11.566;2023-06-10T02:46:09;95385.00;;;18.27;36.69
73671;BME280;61968;48.178;11.566;2023-06-10T02:48:40;95389.03;;;18.24;36.58
73671;BME280;61968;48.178;11.566;2023-06-10T02:51:07;95381.28;;;18.23;36.50
73671;BME280;61968;48.178;11.566;2023-06-10T02:53:34;95376.28;;;18.16;36.91
73671;BME280;61968;48.178;11.566;2023-06-10T02:56:00;95378.44;;;18.14;36.67
73671;BME280;61968;48.178;11.566;2023-06-10T02:58:27;95383.81;;;18.14;36.92
73671;BME280;61968;48.178;11.566;2023-06-10T03:00:53;95381.97;;;18.09;36.76
73671;BME280;61968;48.178;11.566;2023-06-10T03:03:21;95393.19;;;18.11;37.00
73671;BME280;61968;48.178;11.566;2023-06-10T03:05:48;95376.31;;;18.11;37.08
73671;BME280;61968;48.178;11.566;2023-06-10T03:08:14;95385.72;;;18.08;37.18
73671;BME280;61968;48.178;11.566;2023-06-10T03:10:40;95394.88;;;18.02;37.07
73671;BME280;61968;48.178;11.566;2023-06-10T03:13:07;95399.94;;;18.04;36.67
73671;BME280;61968;48.178;11.566;2023-06-10T03:15:35;95403.19;;;18.01;36.86
73671;BME280;61968;48.178;11.566;2023-06-10T03:18:01;95407.63;;;17.86;37.34
73671;BME280;61968;48.178;11.566;2023-06-10T03:20:29;95410.84;;;17.88;37.39
73671;BME280;61968;48.178;11.566;2023-06-10T03:22:55;95408.38;;;17.92;37.21
73671;BME280;61968;48.178;11.566;2023-06-10T03:25:22;95414.28;;;17.89;37.07
73671;BME280;61968;48.178;11.566;2023-06-10T03:27:48;95408.16;;;17.88;36.88
73671;BME280;61968;48.178;11.566;2023-06-10T03:30:16;95414.88;;;17.86;37.10
73671;BME280;61968;48.178;11.566;2023-06-10T03:32:42;95413.06;;;17.81;37.35
73671;BME280;61968;48.178;11.566;2023-06-10T03:35:09;95418.41;;;17.81;37.16
73671;BME280;61968;48.178;11.566;2023-06-10T03:37:37;95416.44;;;17.87;37.00
73671;BME280;61968;48.178;11.566;2023-06-10T03:40:04;95420.56;;;17.79;37.29
73671;BME280;61968;48.178;11.566;2023-06-10T03:42:31;95422.50;;;17.74;37.80
73671;BME280;61968;48.178;11.566;2023-06-10T03:44:58;95422.50;;;17.74;37.33
73671;BME280;61968;48.178;11.566;2023-06-10T03:47:24;95424.91;;;17.75;37.36
73671;BME280;61968;48.178;11.566;2023-06-10T03:49:51;95425.16;;;17.74;37.50
73671;BME280;61968;48.178;11.566;2023-06-10T03:52:18;95433.47;;;17.72;37.87
73671;BME280;61968;48.178;11.566;2023-06-10T03:54:46;95425.19;;;17.68;37.76
73671;BME280;61968;48.178;11.566;2023-06-10T03:57:12;95431.13;;;17.65;37.78
73671;BME280;61968;48.178;11.566;2023-06-10T03:59:39;95431.91;;;17.66;37.86
73671;BME280;61968;48.178;11.566;2023-06-10T04:02:05;95428.97;;;17.67;38.15
73671;BME280;61968;48.178;11.566;2023-06-10T04:04:34;95429.56;;;17.59;38.62
73671;BME280;61968;48.178;11.566;2023-06-10T04:07:01;95430.09;;;17.61;38.57
73671;BME280;61968;48.178;11.566;2023-06-10T04:09:28;95433.91;;;17.55;38.28
73671;BME280;61968;48.178;11.566;2023-06-10T04:11:56;95442.16;;;17.59;38.40
73671;BME280;61968;48.178;11.566;2023-06-10T04:14:22;95443.50;;;17.56;38.21
73671;BME280;61968;48.178;11.566;2023-06-10T04:16:49;95440.78;;;17.61;38.70
73671;BME280;61968;48.178;11.566;2023-06-10T04:19:16;95439.78;;;17.57;38.63
73671;BME280;61968;48.178;11.566;2023-06-10T04:21:43;95437.03;;;17.62;38.35
73671;BME280;61968;48.178;11.566;2023-06-10T04:24:09;95442.09;;;17.64;38.57
73671;BME280;61968;48.178;11.566;2023-06-10T04:26:35;95446.09;;;17.66;38.72
73671;BME280;61968;48.178;11.566;2023-06-10T04:29:03;95443.66;;;17.70;38.70
73671;BME280;61968;48.178;11.566;2023-06-10T04:31:30;95449.56;;;17.67;38.73
73671;BME280;61968;48.178;11.566;2023-06-10T04:33:57;95446.69;;;17.58;39.34
73671;BME280;61968;48.178;11.566;2023-06-10T04:36:23;95455.25;;;17.60;39.27
73671;BME280;61968;48.178;11.566;2023-06-10T04:38:50;95452.50;;;17.65;38.99
73671;BME280;61968;48.178;11.566;2023-06-10T04:41:17;95454.63;;;17.68;39.05
73671;BME280;61968;48.178;11.566;2023-06-10T04:43:43;95449.78;;;17.71;38.89
73671;BME280;61968;48.178;11.566;2023-06-10T04:46:11;95458.91;;;17.70;39.12
73671;BME280;61968;48.178;11.566;2023-06-10T04:48:38;95457.47;;;17.77;39.09
73671;BME280;61968;48.178;11.566;2023-06-10T04:51:05;95455.88;;;17.76;39.31
73671;BME280;61968;48.178;11.566;2023-06-10T04:53:31;95463.31;;;17.84;38.62
73671;BME280;61968;48.178;11.566;2023-06-10T04:55:58;95455.28;;;17.84;39.35
73671;BME280;61968;48.178;11.566;2023-06-10T04:58:24;95463.06;;;17.81;39.43
73671;BME280;61968;48.178;11.566;2023-06-10T05:00:51;95465.00;;;17.75;39.68
73671;BME280;61968;48.178;11.566;2023-06-10T05:03:19;95460.94;;;17.78;39.00
73671;BME280;61968;48.178;11.566;2023-06-10T05:05:45;95459.25;;;17.87;39.37
73671;BME280;61968;48.178;11.566;2023-06-10T05:08:11;95457.09;;;17.89;39.59
73671;BME280;61968;48.178;11.566;2023-06-10T05:10:38;95462.31;;;17.99;39.22
73671;BME280;61968;48.178;11.566;2023-06-10T05:13:04;95459.72;;;17.94;39.20
73671;BME280;61968;48.178;11.566;2023-06-10T05:15:31;95459.31;;;18.06;39.08
73671;BME280;61968;48.178;11.566;2023-06-10T05:17:58;95456.56;;;18.11;39.46
73671;BME280;61968;48.178;11.566;2023-06-10T05:20:26;95457.66;;;18.10;39.22
73671;BME280;61968;48.178;11.566;2023-06-10T05:22:53;95463.94;;;18.00;39.79
73671;BME280;61968;48.178;11.566;2023-06-10T05:25:20;95458.28;;;18.02;39.40
73671;BME280;61968;48.178;11.566;2023-06-10T05:27:46;95459.03;;;18.07;39.54
73671;BME280;61968;48.178;11.566;2023-06-10T05:30:13;95463.28;;;18.13;39.40
73671;BME280;61968;48.178;11.566;2023-06-10T05:32:40;95460.25;;;18.20;39.60
73671;BME280;61968;48.178;11.566;2023-06-10T05:35:07;95466.69;;;18.19;39.80
73671;BME280;61968;48.178;11.566;2023-06-10T05:37:34;95459.22;;;18.16;39.81
73671;BME280;61968;48.178;11.566;2023-06-10T05:40:02;95467.47;;;18.20;39.92
73671;BME280;61968;48.178;11.566;2023-06-10T05:42:29;95472.94;;;18.09;40.20
73671;BME280;61968;48.178;11.566;2023-06-10T05:44:56;95475.59;;;18.15;40.07
73671;BME280;61968;48.178;11.566;2023-06-10T05:47:22;95472.91;;;18.15;40.06
73671;BME280;61968;48.178;11.566;2023-06-10T05:49:49;95482.03;;;18.08;40.82
73671;BME280;61968;48.178;11.566;2023-06-10T05:52:16;95478.28;;;18.09;39.78
73671;BME280;61968;48.178;11.566;2023-06-10T05:54:44;95470.63;;;18.27;40.32
73671;BME280;61968;48.178;11.566;2023-06-10T05:57:11;95471.59;;;18.36;40.08
73671;BME280;61968;48.178;11.566;2023-06-10T05:59:37;95476.03;;;18.22;40.46
73671;BME280;61968;48.178;11.566;2023-06-10T06:02:05;95466.13;;;18.22;40.34
73671;BME280;61968;48.178;11.566;2023-06-10T06:04:31;95475.50;;;18.20;40.53
73671;BME280;61968;48.178;11.566;2023-06-10T06:06:58;95472.03;;;18.19;40.44
73671;BME280;61968;48.178;11.566;2023-06-10T06:09:24;95475.25;;;18.21;40.29
73671;BME280;61968;48.178;11.566;2023-06-10T06:11:52;95467.47;;;18.44;39.50
73671;BME280;61968;48.178;11.566;2023-06-10T06:14:19;95476.75;;;18.51;40.04
73671;BME280;61968;48.178;11.566;2023-06-10T06:16:45;95476.19;;;18.54;39.40
73671;BME280;61968;48.178;11.566;2023-06-10T06:19:12;95482.38;;;18.50;39.65
73671;BME280;61968;48.178;11.566;2023-06-10T06:21:38;95478.75;;;18.41;40.03
73671;BME280;61968;48.178;11.566;2023-06-10T06:24:05;95476.41;;;18.34;40.00
73671;BME280;61968;48.178;11.566;2023-06-10T06:26:32;95476.81;;;18.46;40.21
73671;BME280;61968;48.178;11.566;2023-06-10T06:29:00;95481.41;;;18.41;39.67
73671;BME280;61968;48.178;11.566;2023-06-10T06:31:26;95486.41;;;18.47;39.94
73671;BME280;61968;48.178;11.566;2023-06-10T06:33:55;95474.06;;;18.51;39.75
73671;BME280;61968;48.178;11.566;2023-06-10T06:36:22;95483.75;;;18.47;39.80
73671;BME280;61968;48.178;11.566;2023-06-10T06:38:48;95476.13;;;18.35;40.01
73671;BME280;61968;48.178;11.566;2023-06-10T06:41:15;95481.47;;;18.35;39.81
73671;BME280;61968;48.178;11.566;2023-06-10T06:43:41;95483.09;;;18.36;40.38
73671;BME280;61968;48.178;11.566;2023-06-10T06:46:10;95483.31;;;18.40;40.31
73671;BME280;61968;48.178;11.566;2023-06-10T06:48:36;95483.91;;;18.56;39.74
73671;BME280;61968;48.178;11.566;2023-06-10T06:51:03;95475.66;;;18.71;39.38
73671;BME280;61968;48.178;11.566;2023-06-10T06:53:29;95477.19;;;18.77;39.25
73671;BME280;61968;48.178;11.566;2023-06-10T06:55:55;95476.41;;;18.77;39.50
73671;BME280;61968;48.178;11.566;2023-06-10T06:58:22;95479.06;;;18.82;39.24
73671;BME280;61968;48.178;11.566;2023-06-10T07:00:48;95477.50;;;18.76;39.30
73671;BME280;61968;48.178;11.566;2023-06-10T07:03:16;95485.19;;;18.83;39.52
73671;BME280;61968;48.178;11.566;2023-06-10T07:05:43;95479.00;;;18.87;39.05
73671;BME280;61968;48.178;11.566;2023-06-10T07:08:09;95480.50;;;18.93;38.73
73671;BME280;61968;48.178;11.566;2023-06-10T07:10:37;95488.75;;;18.97;38.66
73671;BME280;61968;48.178;11.566;2023-06-10T07:13:04;95499.19;;;18.98;38.37
73671;BME280;61968;48.178;11.566;2023-06-10T07:15:30;95491.44;;;18.97;38.39
73671;BME280;61968;48.178;11.566;2023-06-10T07:17:58;95495.44;;;18.99;38.49
73671;BME280;61968;48.178;11.566;2023-06-10T07:20:25;95504.50;;;18.79;39.14
73671;BME280;61968;48.178;11.566;2023-06-10T07:22:52;95493.91;;;18.93;38.84
73671;BME280;61968;48.178;11.566;2023-06-10T07:25:19;95504.31;;;18.95;38.76
73671;BME280;61968;48.178;11.566;2023-06-10T07:27:45;95497.66;;;18.92;38.48
73671;BME280;61968;48.178;11.566;2023-06-10T07:30:12;95497.16;;;18.90;39.03
73671;BME280;61968;48.178;11.566;2023-06-10T07:32:39;95495.75;;;18.93;38.92
73671;BME280;61968;48.178;11.566;2023-06-10T07:35:08;95499.63;;;19.06;38.43
73671;BME280;61968;48.178;11.566;2023-06-10T07:37:36;95499.53;;;19.11;38.50
73671;BME280;61968;48.178;11.566;2023-06-10T07:40:04;95495.78;;;19.12;38.24
73671;BME280;61968;48.178;11.566;2023-06-10T07:42:31;95498.03;;;19.23;37.97
73671;BME280;61968;48.178;11.566;2023-06-10T07:44:57;95496.63;;;19.26;38.06
73671;BME280;61968;48.178;11.566;2023-06-10T07:47:24;95497.06;;;19.33;37.99
73671;BME280;61968;48.178;11.566;2023-06-10T07:49:50;95491.03;;;19.41;37.77
73671;BME280;61968;48.178;11.566;2023-06-10T07:52:17;95485.81;;;19.50;37.52
73671;BME280;61968;48.178;11.566;2023-06-10T07:54:44;95481.91;;;19.42;37.46
73671;BME280;61968;48.178;11.566;2023-06-10T07:57:11;95484.88;;;19.41;37.57
73671;BME280;61968;48.178;11.566;2023-06-10T07:59:37;95496.81;;;19.48;37.21
73671;BME280;61968;48.178;11.566;2023-06-10T08:02:04;95483.13;;;19.50;37.06
73671;BME280;61968;48.178;11.566;2023-06-10T08:04:32;95481.75;;;19.53;37.34
73671;BME280;61968;48.178;11.566;2023-06-10T08:07:00;95477.50;;;19.52;37.24
73671;BME280;61968;48.178;11.566;2023-06-10T08:09:27;95486.28;;;19.71;36.89
73671;BME280;61968;48.178;11.566;2023-06-10T08:11:55;95478.53;;;19.83;36.30
73671;BME280;61968;48.178;11.566;2023-06-10T08:14:22;95481.34;;;19.92;36.01
73671;BME280;61968;48.178;11.566;2023-06-10T08:16:48;95483.16;;;19.97;36.89
73671;BME280;61968;48.178;11.566;2023-06-10T08:19:15;95488.53;;;19.97;37.05
73671;BME280;61968;48.178;11.566;2023-06-10T08:21:41;95490.03;;;20.03;36.46
73671;BME280;61968;48.178;11.566;2023-06-10T08:24:08;95493.19;;;20.05;36.38
73671;BME280;61968;48.178;11.566;2023-06-10T08:26:35;95492.19;;;20.01;36.25
73671;BME280;61968;48.178;11.566;2023-06-10T08:29:03;95486.31;;;19.99;36.09
73671;BME280;61968;48.178;11.566;2023-06-10T08:31:29;95489.00;;;19.99;36.08
73671;BME280;61968;48.178;11.566;2023-06-10T08:33:59;95490.22;;;20.06;35.81
73671;BME280;61968;48.178;11.566;2023-06-10T08:36:25;95491.59;;;20.04;35.89
73671;BME280;61968;48.178;11.566;2023-06-10T08:38:52;95494.69;;;20.11;35.75
73671;BME280;61968;48.178;11.566;2023-06-10T08:41:18;95500.00;;;20.16;35.68
73671;BME280;61968;48.178;11.566;2023-06-10T08:43:50;95498.81;;;20.22;35.90
73671;BME280;61968;48.178;11.566;2023-06-10T08:46:22;95501.47;;;20.22;35.64
73671;BME280;61968;48.178;11.566;2023-06-10T08:48:54;95496.63;;;20.24;35.79
73671;BME280;61968;48.178;11.566;2023-06-10T08:51:22;95492.94;;;20.20;35.79
73671;BME280;61968;48.178;11.566;2023-06-10T08:54:02;95493.44;;;20.36;35.92
73671;BME280;61968;48.178;11.566;2023-06-10T08:56:29;95494.63;;;20.44;35.82
73671;BME280;61968;48.178;11.566;2023-06-10T08:58:57;95490.44;;;20.37;35.53
73671;BME280;61968;48.178;11.566;2023-06-10T09:01:25;95492.53;;;20.40;35.79
73671;BME280;61968;48.178;11.566;2023-06-10T09:03:52;95490.25;;;20.48;35.83
73671;BME280;61968;48.178;11.566;2023-06-10T09:06:19;95491.03;;;20.62;35.26
73671;BME280;61968;48.178;11.566;2023-06-10T09:08:46;95492.13;;;20.61;34.86
73671;BME280;61968;48.178;11.566;2023-06-10T09:11:12;95490.81;;;20.72;35.76
73671;BME280;61968;48.178;11.566;2023-06-10T09:13:39;95487.22;;;20.77;35.41
73671;BME280;61968;48.178;11.566;2023-06-10T09:16:05;95484.66;;;20.58;35.90
73671;BME280;61968;48.178;11.566;2023-06-10T09:18:33;95492.03;;;20.80;35.42
73671;BME280;61968;48.178;11.566;2023-06-10T09:21:00;95482.88;;;20.81;35.51
73671;BME280;61968;48.178;11.566;2023-06-10T09:23:26;95493.03;;;20.84;35.20
73671;BME280;61968;48.178;11.566;2023-06-10T09:25:56;95487.94;;;20.82;35.34
73671;BME280;61968;48.178;11.566;2023-06-10T09:28:24;95491.91;;;20.71;35.09
73671;BME280;61968;48.178;11.566;2023-06-10T09:31:01;95488.72;;;20.83;34.37
73671;BME280;61968;48.178;11.566;2023-06-10T09:33:28;95485.06;;;20.79;33.68
73671;BME280;61968;48.178;11.566;2023-06-10T09:35:56;95489.41;;;20.89;33.45
73671;BME280;61968;48.178;11.566;2023-06-10T09:38:29;95485.94;;;20.88;33.50
73671;BME280;61968;48.178;11.566;2023-06-10T09:40:56;95491.06;;;20.98;33.30
73671;BME280;61968;48.178;11.566;2023-06-10T09:43:23;95494.84;;;21.11;33.50
73671;BME280;61968;48.178;11.566;2023-06-10T09:45:50;95490.53;;;21.24;33.86
73671;BME280;61968;48.178;11.566;2023-06-10T09:48:18;95486.19;;;21.14;33.77
73671;BME280;61968;48.178;11.566;2023-06-10T09:50:45;95491.16;;;21.07;32.93
73671;BME280;61968;48.178;11.566;2023-06-10T09:53:13;95486.19;;;21.14;32.86
73671;BME280;61968;48.178;11.566;2023-06-10T09:55:41;95482.38;;;21.15;33.03
73671;BME280;61968;48.178;11.566;2023-06-10T09:58:08;95485.31;;;21.27;33.66
73671;BME280;61968;48.178;11.566;2023-06-10T10:00:34;95486.88;;;21.42;33.85
73671;BME280;61968;48.178;11.566;2023-06-10T10:03:01;95490.84;;;21.45;33.46
73671;BME280;61968;48.178;11.566;2023-06-10T10:05:28;95494.94;;;21.42;32.89
73671;BME280;61968;48.178;11.566;2023-06-10T10:07:55;95491.47;;;21.42;32.49
73671;BME280;61968;48.178;11.566;2023-06-10T10:10:23;95491.47;;;21.42;32.55
73671;BME280;61968;48.178;11.566;2023-06-10T10:12:54;95487.66;;;21.43;32.00
73671;BME280;61968;48.178;11.566;2023-06-10T10:15:23;95489.13;;;21.49;32.47
73671;BME280;61968;48.178;11.566;2023-06-10T10:17:53;95491.31;;;21.47;32.40
73671;BME280;61968;48.178;11.566;2023-06-10T10:20:24;95491.78;;;21.63;32.90
73671;BME280;61968;48.178;11.566;2023-06-10T10:22:52;95496.84;;;21.64;32.11
73671;BME280;61968;48.178;11.566;2023-06-10T10:25:27;95488.25;;;21.62;32.45
73671;BME280;61968;48.178;11.566;2023-06-10T10:27:57;95484.59;;;21.81;32.15
73671;BME280;61968;48.178;11.566;2023-06-10T10:30:25;95485.81;;;21.74;31.31
73671;BME280;61968;48.178;11.566;2023-06-10T10:32:59;95489.16;;;21.80;32.11
73671;BME280;61968;48.178;11.566;2023-06-10T10:35:26;95484.38;;;21.99;32.01
73671;BME280;61968;48.178;11.566;2023-06-10T10:37:54;95488.53;;;22.06;31.75
73671;BME280;61968;48.178;11.566;2023-06-10T10:40:22;95486.94;;;22.05;31.96
73671;BME280;61968;48.178;11.566;2023-06-10T10:42:50;95485.75;;;22.19;31.59
73671;BME280;61968;48.178;11.566;2023-06-10T10:45:18;95477.84;;;22.23;31.28
73671;BME280;61968;48.178;11.566;2023-06-10T10:47:45;95487.75;;;22.05;30.05
73671;BME280;61968;48.178;11.566;2023-06-10T10:50:16;95478.63;;;22.24;30.82
73671;BME280;61968;48.178;11.566;2023-06-10T10:52:53;95480.22;;;22.25;30.42
73671;BME280;61968;48.178;11.566;2023-06-10T10:55:21;95483.56;;;22.30;30.52
73671;BME280;61968;48.178;11.566;2023-06-10T10:57:56;95479.13;;;22.34;30.98
73671;BME280;61968;48.178;11.566;2023-06-10T11:00:30;95478.88;;;22.44;31.45
73671;BME280;61968;48.178;11.566;2023-06-10T11:02:58;95476.38;;;22.57;31.04
73671;BME280;61968;48.178;11.566;2023-06-10T11:05:36;95472.13;;;22.64;30.93
73671;BME280;61968;48.178;11.566;2023-06-10T11:08:03;95475.44;;;22.61;30.40
73671;BME280;61968;48.178;11.566;2023-06-10T11:10:30;95475.22;;;22.49;30.63
73671;BME280;61968;48.178;11.566;2023-06-10T11:12:59;95475.34;;;22.44;30.58
73671;BME280;61968;48.178;11.566;2023-06-10T11:15:27;95471.75;;;22.49;29.95
73671;BME280;61968;48.178;11.566;2023-06-10T11:18:10;95469.84;;;22.49;29.97
73671;BME280;61968;48.178;11.566;2023-06-10T11:20:55;95475.97;;;22.32;30.02
73671;BME280;61968;48.178;11.566;2023-06-10T11:23:38;95471.38;;;22.33;30.43
73671;BME280;61968;48.178;11.566;2023-06-10T11:26:16;95486.63;;;22.46;30.90
73671;BME280;61968;48.178;11.566;2023-06-10T11:29:02;95467.91;;;22.41;29.26
73671;BME280;61968;48.178;11.566;2023-06-10T11:31:30;95479.31;;;22.38;30.12
73671;BME280;61968;48.178;11.566;2023-06-10T11:33:58;95471.09;;;22.43;29.93
73671;BME280;61968;48.178;11.566;2023-06-10T11:36:26;95470.59;;;22.41;30.26
73671;BME280;61968;48.178;11.566;2023-06-10T11:38:55;95472.50;;;22.40;30.48
73671;BME280;61968;48.178;11.566;2023-06-10T11:41:23;95471.06;;;22.34;30.77
73671;BME280;61968;48.178;11.566;2023-06-10T11:43:50;95472.63;;;22.27;30.72
73671;BME280;61968;48.178;11.566;2023-06-10T11:46:18;95471.16;;;22.12;30.42
73671;BME280;61968;48.178;11.566;2023-06-10T11:48:48;95458.84;;;21.97;29.90
73671;BME280;61968;48.178;11.566;2023-06-10T11:51:15;95465.03;;;21.97;29.88
73671;BME280;61968;48.178;11.566;2023-06-10T11:53:43;95467.34;;;22.13;30.76
73671;BME280;61968;48.178;11.566;2023-06-10T11:56:10;95459.81;;;22.41;30.80
73671;BME280;61968;48.178;11.566;2023-06-10T11:58:36;95459.97;;;22.27;30.97
73671;BME280;61968;48.178;11.566;2023-06-10T12:01:03;95465.00;;;22.29;32.07
73671;BME280;61968;48.178;11.566;2023-06-10T12:03:37;95451.44;;;22.42;31.46
73671;BME280;61968;48.178;11.566;2023-06-10T12:06:05;95453.97;;;22.39;31.62
73671;BME280;61968;48.178;11.566;2023-06-10T12:08:33;95454.59;;;22.36;31.31
73671;BME280;61968;48.178;11.566;2023-06-10T12:11:00;95456.03;;;22.42;31.34
73671;BME280;61968;48.178;11.566;2023-06-10T12:13:27;95452.81;;;22.31;30.45
73671;BME280;61968;48.178;11.566;2023-06-10T12:15:54;95444.28;;;22.38;30.28
73671;BME280;61968;48.178;11.566;2023-06-10T12:18:22;95443.06;;;22.53;30.44
73671;BME280;61968;48.178;11.566;2023-06-10T12:20:51;95442.13;;;22.57;30.92
73671;BME280;61968;48.178;11.566;2023-06-10T12:23:18;95446.31;;;22.72;30.62
73671;BME280;61968;48.178;11.566;2023-06-10T12:25:52;95441.22;;;22.88;30.42
73671;BME280;61968;48.178;11.566;2023-06-10T12:28:21;95442.81;;;22.89;29.41
73671;BME280;61968;48.178;11.566;2023-06-10T12:30:47;95436.63;;;22.88;29.87
73671;BME280;61968;48.178;11.566;2023-06-10T12:33:17;95445.81;;;22.79;29.32
73671;BME280;61968;48.178;11.566;2023-06-10T12:35:47;95438.03;;;22.77;29.94
73671;BME280;61968;48.178;11.566;2023-06-10T12:38:20;95443.78;;;22.84;29.62
73671;BME280;61968;48.178;11.566;2023-06-10T12:40:47;95429.97;;;22.95;29.29
73671;BME280;61968;48.178;11.566;2023-06-10T12:43:19;95426.00;;;23.09;29.29
73671;BME280;61968;48.178;11.566;2023-06-10T12:45:46;95428.06;;;23.12;29.13
73671;BME280;61968;48.178;11.566;2023-06-10T12:48:18;95435.66;;;23.10;29.35
73671;BME280;61968;48.178;11.566;2023-06-10T12:50:50;95426.00;;;23.09;28.74
73671;BME280;61968;48.178;11.566;2023-06-10T12:53:19;95428.69;;;23.09;28.88